createdAt,value
2022-08-22T00:00:13.891Z,17.55
2022-08-22T00:02:21.459Z,17.50
2022-08-22T00:02:49.863Z,19.18
2022-08-22T00:02:49.989Z,19.00
2022-08-22T00:02:56.358Z,23.33
2022-08-22T00:02:59.341Z,17.77
2022-08-22T00:03:16.022Z,17.60
2022-08-22T00:04:29.845Z,17.49
2022-08-22T00:06:44.638Z,17.46
2022-08-22T00:08:55.558Z,17.44
2022-08-22T00:11:02.637Z,17.41
2022-08-22T00:13:09.916Z,17.37
2022-08-22T00:15:43.653Z,17.38
2022-08-22T00:17:49.055Z,17.35
2022-08-22T00:19:57.103Z,17.34
2022-08-22T00:22:03.619Z,17.33
2022-08-22T00:24:11.878Z,17.34
2022-08-22T00:26:24.689Z,17.32
2022-08-22T00:28:31.383Z,17.31
2022-08-22T00:30:45.812Z,17.31
2022-08-22T00:32:51.864Z,17.31
2022-08-22T00:34:58.947Z,17.29
2022-08-22T00:37:04.999Z,17.27
2022-08-22T00:39:13.099Z,17.22
2022-08-22T00:41:32.115Z,17.19
2022-08-22T00:43:58.579Z,17.16
2022-08-22T00:46:19.635Z,17.13
2022-08-22T00:48:49.470Z,17.11
2022-08-22T00:51:05.474Z,17.06
2022-08-22T00:53:27.438Z,17.04
2022-08-22T00:55:45.299Z,17.02
2022-08-22T00:58:03.502Z,16.98
2022-08-22T01:00:13.115Z,16.92
2022-08-22T01:02:31.766Z,16.88
2022-08-22T01:05:08.353Z,16.83
2022-08-22T01:07:38.158Z,16.81
2022-08-22T01:09:50.866Z,16.79
2022-08-22T01:12:11.789Z,16.77
2022-08-22T01:14:34.251Z,16.74
2022-08-22T01:16:52.072Z,16.72
2022-08-22T01:19:08.478Z,16.70
2022-08-22T01:21:49.847Z,16.68
2022-08-22T01:24:32.859Z,16.61
2022-08-22T01:27:13.766Z,16.58
2022-08-22T01:29:49.516Z,16.53
2022-08-22T01:32:28.165Z,16.52
2022-08-22T01:34:41.659Z,16.48
2022-08-22T01:37:01.629Z,16.45
2022-08-22T01:39:25.712Z,16.45
2022-08-22T01:41:46.793Z,16.43
2022-08-22T01:44:10.021Z,16.43
2022-08-22T01:46:27.050Z,16.41
2022-08-22T01:48:36.003Z,16.40
2022-08-22T01:50:43.499Z,16.40
2022-08-22T01:52:50.707Z,16.39
2022-08-22T01:54:56.169Z,16.36
2022-08-22T01:57:04.467Z,16.36
2022-08-22T01:59:11.214Z,16.33
2022-08-22T02:01:21.453Z,16.32
2022-08-22T02:03:27.191Z,16.28
2022-08-22T02:05:33.575Z,16.28
2022-08-22T02:07:46.155Z,16.26
2022-08-22T02:09:54.117Z,16.24
2022-08-22T02:11:59.754Z,16.18
2022-08-22T02:14:14.067Z,16.13
2022-08-22T02:16:21.561Z,16.06
2022-08-22T02:18:29.168Z,16.03
2022-08-22T02:20:35.408Z,16.00
2022-08-22T02:22:44.921Z,15.99
2022-08-22T02:24:52.377Z,16.00
2022-08-22T02:27:06.241Z,16.01
2022-08-22T02:29:13.407Z,16.01
2022-08-22T02:31:21.521Z,16.00
2022-08-22T02:33:30.147Z,15.97
2022-08-22T02:35:38.867Z,15.91
2022-08-22T02:37:50.594Z,15.83
2022-08-22T02:40:03.190Z,15.80
2022-08-22T02:42:16.329Z,15.78
2022-08-22T02:44:22.617Z,15.79
2022-08-22T02:46:31.542Z,15.81
2022-08-22T02:48:38.380Z,15.85
2022-08-22T02:50:45.531Z,15.86
2022-08-22T02:53:02.367Z,15.83
2022-08-22T02:55:09.172Z,15.81
2022-08-22T02:57:14.142Z,15.78
2022-08-22T02:59:26.081Z,15.74
2022-08-22T03:01:40.784Z,15.72
2022-08-22T03:03:47.712Z,15.67
2022-08-22T03:06:01.018Z,15.63
2022-08-22T03:08:13.129Z,15.62
2022-08-22T03:10:22.926Z,15.60
2022-08-22T03:12:32.124Z,15.59
2022-08-22T03:14:43.085Z,15.59
2022-08-22T03:16:50.720Z,15.58
2022-08-22T03:18:57.295Z,15.55
2022-08-22T03:21:14.930Z,15.52
2022-08-22T03:23:32.670Z,15.51
2022-08-22T03:25:39.265Z,15.52
2022-08-22T03:27:49.471Z,15.51
2022-08-22T03:29:55.855Z,15.50
2022-08-22T03:32:12.255Z,15.47
2022-08-22T03:34:22.172Z,15.45
2022-08-22T03:36:28.259Z,15.43
2022-08-22T03:38:49.177Z,15.44
2022-08-22T03:41:16.407Z,15.40
2022-08-22T03:43:32.252Z,15.33
2022-08-22T03:46:04.419Z,15.24
2022-08-22T03:48:36.573Z,15.20
2022-08-22T03:51:00.020Z,15.18
2022-08-22T03:53:41.068Z,15.16
2022-08-22T03:56:46.420Z,15.16
2022-08-22T03:59:12.273Z,15.15
2022-08-22T04:01:41.360Z,15.16
2022-08-22T04:04:24.042Z,15.15
2022-08-22T04:06:56.403Z,15.15
2022-08-22T04:09:27.603Z,15.12
2022-08-22T04:11:46.880Z,15.09
2022-08-22T04:13:58.698Z,15.08
2022-08-22T04:16:15.974Z,15.07
2022-08-22T04:18:37.871Z,15.05
2022-08-22T04:21:28.837Z,15.04
2022-08-22T04:23:57.931Z,15.06
2022-08-22T04:26:11.958Z,15.04
2022-08-22T04:28:20.818Z,15.04
2022-08-22T04:30:28.659Z,15.02
2022-08-22T04:32:36.451Z,15.01
2022-08-22T04:34:42.629Z,14.99
2022-08-22T04:36:48.704Z,15.01
2022-08-22T04:38:55.807Z,15.00
2022-08-22T04:41:04.943Z,15.00
2022-08-22T04:43:11.090Z,14.99
2022-08-22T04:45:18.173Z,14.96
2022-08-22T04:47:29.940Z,14.93
2022-08-22T04:49:36.995Z,14.91
2022-08-22T04:51:42.281Z,14.91
2022-08-22T04:53:57.505Z,14.95
2022-08-22T04:56:08.247Z,15.03
2022-08-22T04:58:23.146Z,15.08
2022-08-22T05:00:26.234Z,15.13
2022-08-22T05:02:31.174Z,15.17
2022-08-22T05:04:36.938Z,15.19
2022-08-22T05:06:41.494Z,15.23
2022-08-22T05:08:46.446Z,15.28
2022-08-22T05:10:57.312Z,15.33
2022-08-22T05:13:04.412Z,15.37
2022-08-22T05:15:12.038Z,15.43
2022-08-22T05:17:19.322Z,15.49
2022-08-22T05:19:33.196Z,15.59
2022-08-22T05:21:39.598Z,15.74
2022-08-22T05:23:44.229Z,15.87
2022-08-22T05:25:51.201Z,16.04
2022-08-22T05:27:56.854Z,16.16
2022-08-22T05:30:06.104Z,16.28
2022-08-22T05:32:15.533Z,16.46
2022-08-22T05:34:23.164Z,16.65
2022-08-22T05:36:28.302Z,16.85
2022-08-22T05:38:33.599Z,17.01
2022-08-22T05:40:37.705Z,17.18
2022-08-22T05:42:41.221Z,17.35
2022-08-22T05:44:44.448Z,17.52
2022-08-22T05:46:52.807Z,17.69
2022-08-22T05:48:58.552Z,17.86
2022-08-22T05:51:09.422Z,18.03
2022-08-22T05:53:15.467Z,18.20
2022-08-22T05:55:26.302Z,18.34
2022-08-22T05:57:32.407Z,18.48
2022-08-22T05:59:37.044Z,18.62
2022-08-22T06:01:47.862Z,18.77
2022-08-22T06:04:02.472Z,18.92
2022-08-22T06:06:12.616Z,19.05
2022-08-22T06:08:19.681Z,19.16
2022-08-22T06:10:27.301Z,19.37
2022-08-22T06:12:34.260Z,19.56
2022-08-22T06:14:42.463Z,19.75
2022-08-22T06:16:48.905Z,19.91
2022-08-22T06:18:52.864Z,20.08
2022-08-22T06:20:59.628Z,20.26
2022-08-22T06:23:04.020Z,20.39
2022-08-22T06:25:09.327Z,20.57
2022-08-22T06:27:14.370Z,20.71
2022-08-22T06:29:27.177Z,20.86
2022-08-22T06:31:32.465Z,21.04
2022-08-22T06:33:38.438Z,21.23
2022-08-22T06:36:00.944Z,21.35
2022-08-22T06:38:05.330Z,21.55
2022-08-22T06:40:10.207Z,21.70
2022-08-22T06:42:16.848Z,21.85
2022-08-22T06:44:23.318Z,22.04
2022-08-22T06:46:28.455Z,22.19
2022-08-22T06:48:31.747Z,22.34
2022-08-22T06:50:36.853Z,22.48
2022-08-22T06:52:50.813Z,22.54
2022-08-22T06:55:00.274Z,22.58
2022-08-22T06:57:05.143Z,22.70
2022-08-22T06:59:11.309Z,22.91
2022-08-22T07:01:17.748Z,23.01
2022-08-22T07:03:26.055Z,23.15
2022-08-22T07:05:30.982Z,23.36
2022-08-22T07:07:34.059Z,23.53
2022-08-22T07:09:38.951Z,23.78
2022-08-22T07:11:43.648Z,23.98
2022-08-22T07:13:50.680Z,24.21
2022-08-22T07:15:56.257Z,24.40
2022-08-22T07:18:01.944Z,24.54
2022-08-22T07:20:11.465Z,24.70
2022-08-22T07:22:17.198Z,24.79
2022-08-22T07:24:24.528Z,24.97
2022-08-22T07:26:32.702Z,25.13
2022-08-22T07:28:51.155Z,25.36
2022-08-22T07:31:05.377Z,25.49
2022-08-22T07:33:26.726Z,25.56
2022-08-22T07:35:32.012Z,25.69
2022-08-22T07:37:55.830Z,25.91
2022-08-22T07:40:05.123Z,26.10
2022-08-22T07:42:12.982Z,26.35
2022-08-22T07:44:18.930Z,26.52
2022-08-22T07:46:28.532Z,26.60
2022-08-22T07:48:40.867Z,26.72
2022-08-22T07:51:00.442Z,26.82
2022-08-22T07:53:08.696Z,26.92
2022-08-22T07:55:17.664Z,26.98
2022-08-22T07:57:24.199Z,27.14
2022-08-22T07:59:29.956Z,27.24
2022-08-22T08:01:33.252Z,27.23
2022-08-22T08:03:36.656Z,27.35
2022-08-22T08:05:42.757Z,27.50
2022-08-22T08:07:47.825Z,27.54
2022-08-22T08:09:56.400Z,27.50
2022-08-22T08:12:00.848Z,27.61
2022-08-22T08:14:05.316Z,27.68
2022-08-22T08:16:13.536Z,27.79
2022-08-22T08:18:21.967Z,27.95
2022-08-22T08:20:27.238Z,28.08
2022-08-22T08:22:30.630Z,28.25
2022-08-22T08:24:40.191Z,28.37
2022-08-22T08:27:05.943Z,28.44
2022-08-22T08:29:09.210Z,28.31
2022-08-22T08:31:21.573Z,28.44
2022-08-22T08:33:28.108Z,28.58
2022-08-22T08:36:01.963Z,28.69
2022-08-22T08:38:03.434Z,28.70
2022-08-22T08:40:20.267Z,28.86
2022-08-22T08:43:02.825Z,28.99
2022-08-22T08:45:20.408Z,29.25
2022-08-22T08:47:32.687Z,29.44
2022-08-22T08:50:08.216Z,29.59
2022-08-22T08:52:24.441Z,29.34
2022-08-22T08:54:43.348Z,29.17
2022-08-22T08:56:54.410Z,29.04
2022-08-22T08:59:10.265Z,28.99
2022-08-22T09:01:29.802Z,28.89
2022-08-22T09:03:54.453Z,28.60
2022-08-22T09:06:07.197Z,28.41
2022-08-22T09:08:47.520Z,28.22
2022-08-22T09:11:19.244Z,28.19
2022-08-22T09:13:48.450Z,28.37
2022-08-22T09:16:04.780Z,28.87
2022-08-22T09:19:03.654Z,29.33
2022-08-22T09:21:30.800Z,29.64
2022-08-22T09:24:18.638Z,29.79
2022-08-22T09:26:28.211Z,29.79
2022-08-22T09:28:37.250Z,29.86
2022-08-22T09:31:16.981Z,29.84
2022-08-22T09:33:35.085Z,29.98
2022-08-22T09:35:47.903Z,30.05
2022-08-22T09:38:16.539Z,30.10
2022-08-22T09:40:29.050Z,30.16
2022-08-22T09:42:44.934Z,30.30
2022-08-22T09:44:59.786Z,30.51
2022-08-22T09:47:08.546Z,30.64
2022-08-22T09:49:14.724Z,30.76
2022-08-22T09:51:34.441Z,30.82
2022-08-22T09:53:53.069Z,30.78
2022-08-22T09:56:15.010Z,30.47
2022-08-22T09:58:23.621Z,30.32
2022-08-22T10:00:33.568Z,30.26
2022-08-22T10:02:43.539Z,30.11
2022-08-22T10:04:47.938Z,29.99
2022-08-22T10:06:59.519Z,30.16
2022-08-22T10:09:08.972Z,30.37
2022-08-22T10:11:20.798Z,30.34
2022-08-22T10:13:34.372Z,30.12
2022-08-22T10:15:42.634Z,30.14
2022-08-22T10:17:53.268Z,30.28
2022-08-22T10:20:05.872Z,30.37
2022-08-22T10:22:36.998Z,30.11
2022-08-22T10:24:48.496Z,29.83
2022-08-22T10:26:54.484Z,29.63
2022-08-22T10:29:01.656Z,29.55
2022-08-22T10:31:22.507Z,29.67
2022-08-22T10:33:29.403Z,29.70
2022-08-22T10:35:35.734Z,29.70
2022-08-22T10:37:46.069Z,29.60
2022-08-22T10:39:56.269Z,29.42
2022-08-22T10:42:19.369Z,29.22
2022-08-22T10:44:32.061Z,29.06
2022-08-22T10:46:38.945Z,28.95
2022-08-22T10:48:50.325Z,28.90
2022-08-22T10:50:58.521Z,28.84
2022-08-22T10:53:24.696Z,28.75
2022-08-22T10:55:33.513Z,28.69
2022-08-22T10:57:56.722Z,28.70
2022-08-22T11:00:07.107Z,28.82
2022-08-22T11:02:26.177Z,28.95
2022-08-22T11:04:39.178Z,28.80
2022-08-22T11:06:46.499Z,28.90
2022-08-22T11:09:10.904Z,29.12
2022-08-22T11:11:21.270Z,29.35
2022-08-22T11:13:28.423Z,29.54
2022-08-22T11:15:53.025Z,29.78
2022-08-22T11:18:14.798Z,29.99
2022-08-22T11:20:22.218Z,30.15
2022-08-22T11:22:31.460Z,30.25
2022-08-22T11:25:06.705Z,30.27
2022-08-22T11:27:20.868Z,30.32
2022-08-22T11:29:39.674Z,30.33
2022-08-22T11:31:52.215Z,30.30
2022-08-22T11:34:01.048Z,30.28
2022-08-22T11:36:12.805Z,30.29
2022-08-22T11:38:31.213Z,30.28
2022-08-22T11:40:43.709Z,30.35
2022-08-22T11:42:50.121Z,30.36
2022-08-22T11:44:55.933Z,30.31
2022-08-22T11:47:01.320Z,30.37
2022-08-22T11:49:27.244Z,30.39
2022-08-22T11:51:47.147Z,30.48
2022-08-22T11:53:56.394Z,30.56
2022-08-22T11:56:12.222Z,30.60
2022-08-22T11:58:29.281Z,30.63
2022-08-22T12:00:37.183Z,30.61
2022-08-22T12:02:54.899Z,30.55
2022-08-22T12:05:03.911Z,30.54
2022-08-22T12:07:14.388Z,30.57
2022-08-22T12:09:40.134Z,30.53
2022-08-22T12:11:54.451Z,30.39
2022-08-22T12:14:06.546Z,30.33
2022-08-22T12:16:15.709Z,30.35
2022-08-22T12:18:31.072Z,30.39
2022-08-22T12:20:49.931Z,30.37
2022-08-22T12:23:12.134Z,30.42
2022-08-22T12:25:24.046Z,30.48
2022-08-22T12:27:49.723Z,30.43
2022-08-22T12:30:05.547Z,30.39
2022-08-22T12:32:43.726Z,30.36
2022-08-22T12:34:55.495Z,30.37
2022-08-22T12:37:04.796Z,30.33
2022-08-22T12:39:27.299Z,30.21
2022-08-22T12:41:56.894Z,30.06
2022-08-22T12:44:07.811Z,30.06
2022-08-22T12:46:28.231Z,30.07
2022-08-22T12:48:44.073Z,30.01
2022-08-22T12:50:51.731Z,29.96
2022-08-22T12:53:07.875Z,29.97
2022-08-22T12:55:25.492Z,29.97
2022-08-22T12:57:38.860Z,30.04
2022-08-22T12:59:45.393Z,30.06
2022-08-22T13:01:50.511Z,29.98
2022-08-22T13:03:57.350Z,30.04
2022-08-22T13:06:04.496Z,30.07
2022-08-22T13:08:17.592Z,30.04
2022-08-22T13:10:34.816Z,29.98
2022-08-22T13:12:44.455Z,29.94
2022-08-22T13:14:53.512Z,30.00
2022-08-22T13:16:58.696Z,29.97
2022-08-22T13:19:07.638Z,29.90
2022-08-22T13:21:15.161Z,29.87
2022-08-22T13:23:24.077Z,29.82
2022-08-22T13:25:29.247Z,29.79
2022-08-22T13:27:34.982Z,29.70
2022-08-22T13:29:43.018Z,29.76
2022-08-22T13:31:52.606Z,29.79
2022-08-22T13:34:00.711Z,29.81
2022-08-22T13:36:06.686Z,29.81
2022-08-22T13:38:13.631Z,29.86
2022-08-22T13:40:24.723Z,29.93
2022-08-22T13:42:31.376Z,29.94
2022-08-22T13:44:39.218Z,29.89
2022-08-22T13:46:58.185Z,29.79
2022-08-22T13:49:09.454Z,29.68
2022-08-22T13:51:16.235Z,29.69
2022-08-22T13:53:27.693Z,29.81
2022-08-22T13:55:37.554Z,29.88
2022-08-22T13:57:51.705Z,29.89
2022-08-22T14:00:05.836Z,29.90
2022-08-22T14:02:17.801Z,29.89
2022-08-22T14:04:28.835Z,29.89
2022-08-22T14:06:43.917Z,29.75
2022-08-22T14:08:48.222Z,29.79
2022-08-22T14:10:55.616Z,29.80
2022-08-22T14:13:32.614Z,29.69
2022-08-22T14:15:45.727Z,29.62
2022-08-22T14:17:49.838Z,29.54
2022-08-22T14:20:01.546Z,29.53
2022-08-22T14:22:08.423Z,29.54
2022-08-22T14:24:20.426Z,29.43
2022-08-22T14:26:33.087Z,29.29
2022-08-22T14:28:40.678Z,29.28
2022-08-22T14:30:59.464Z,29.30
2022-08-22T14:33:12.439Z,29.27
2022-08-22T14:35:34.858Z,29.19
2022-08-22T14:37:43.074Z,29.18
2022-08-22T14:39:48.249Z,29.18
2022-08-22T14:41:58.653Z,29.18
2022-08-22T14:44:07.055Z,29.18
2022-08-22T14:46:14.243Z,29.14
2022-08-22T14:48:30.965Z,29.11
2022-08-22T14:50:46.120Z,29.10
2022-08-22T14:53:05.615Z,29.13
2022-08-22T14:55:22.095Z,28.95
2022-08-22T14:57:25.421Z,28.90
2022-08-22T14:59:36.564Z,28.89
2022-08-22T15:01:54.922Z,28.88
2022-08-22T15:04:02.861Z,28.91
2022-08-22T15:06:12.482Z,28.94
2022-08-22T15:08:28.140Z,28.93
2022-08-22T15:10:33.113Z,28.95
2022-08-22T15:12:40.373Z,29.04
2022-08-22T15:14:51.941Z,29.12
2022-08-22T15:16:57.476Z,29.20
2022-08-22T15:19:02.106Z,29.28
2022-08-22T15:21:10.071Z,29.32
2022-08-22T15:23:23.427Z,29.41
2022-08-22T15:25:29.831Z,29.48
2022-08-22T15:27:36.668Z,29.54
2022-08-22T15:29:51.381Z,29.61
2022-08-22T15:31:57.672Z,29.64
2022-08-22T15:34:11.201Z,29.64
2022-08-22T15:36:24.121Z,29.63
2022-08-22T15:38:30.805Z,29.58
2022-08-22T15:40:40.484Z,29.54
2022-08-22T15:42:45.824Z,29.44
2022-08-22T15:44:55.220Z,29.32
2022-08-22T15:47:01.459Z,29.27
2022-08-22T15:49:07.741Z,29.24
2022-08-22T15:51:33.802Z,29.21
2022-08-22T15:54:00.971Z,28.98
2022-08-22T15:56:29.661Z,28.80
2022-08-22T15:58:33.148Z,28.73
2022-08-22T16:00:43.848Z,28.73
2022-08-22T16:02:57.481Z,28.65
2022-08-22T16:05:19.058Z,28.54
2022-08-22T16:07:28.877Z,28.50
2022-08-22T16:09:36.394Z,28.50
2022-08-22T16:11:40.591Z,28.50
2022-08-22T16:13:45.763Z,28.50
2022-08-22T16:16:01.431Z,28.46
2022-08-22T16:18:04.652Z,28.45
2022-08-22T16:20:43.310Z,28.45
2022-08-22T16:23:09.547Z,28.41
2022-08-22T16:25:14.228Z,28.38
2022-08-22T16:27:20.751Z,28.36
2022-08-22T16:29:32.061Z,28.32
2022-08-22T16:31:58.267Z,28.29
2022-08-22T16:34:24.099Z,28.26
2022-08-22T16:36:41.963Z,28.26
2022-08-22T16:38:49.407Z,28.27
2022-08-22T16:40:52.453Z,28.28
2022-08-22T16:43:14.131Z,28.33
2022-08-22T16:45:20.521Z,28.34
2022-08-22T16:47:25.885Z,28.33
2022-08-22T16:49:30.862Z,28.34
2022-08-22T16:51:33.836Z,28.35
2022-08-22T16:54:18.204Z,28.31
2022-08-22T16:56:28.008Z,28.26
2022-08-22T16:59:14.089Z,28.20
2022-08-22T17:01:34.968Z,28.13
2022-08-22T17:03:43.676Z,28.05
2022-08-22T17:05:54.831Z,28.00
2022-08-22T17:08:08.003Z,27.94
2022-08-22T17:10:25.264Z,27.87
2022-08-22T17:12:39.181Z,27.81
2022-08-22T17:14:48.801Z,27.77
2022-08-22T17:16:58.476Z,27.73
2022-08-22T17:19:14.668Z,27.68
2022-08-22T17:21:25.811Z,27.64
2022-08-22T17:23:36.269Z,27.60
2022-08-22T17:25:51.573Z,27.58
2022-08-22T17:28:07.554Z,27.57
2022-08-22T17:30:14.363Z,27.54
2022-08-22T17:32:22.504Z,27.51
2022-08-22T17:34:34.172Z,27.45
2022-08-22T17:36:54.084Z,27.40
2022-08-22T17:39:05.723Z,27.36
2022-08-22T17:41:17.602Z,27.34
2022-08-22T17:43:33.556Z,27.29
2022-08-22T17:46:12.771Z,27.24
2022-08-22T17:48:19.919Z,27.20
2022-08-22T17:50:26.837Z,27.17
2022-08-22T17:52:36.115Z,27.13
2022-08-22T17:54:41.747Z,27.10
2022-08-22T17:56:47.155Z,27.04
2022-08-22T17:59:08.598Z,26.99
2022-08-22T18:01:14.988Z,26.93
2022-08-22T18:03:23.481Z,26.90
2022-08-22T18:05:29.714Z,26.85
2022-08-22T18:07:55.179Z,26.78
2022-08-22T18:10:01.931Z,26.70
2022-08-22T18:12:09.306Z,26.63
2022-08-22T18:14:25.540Z,26.57
2022-08-22T18:16:30.698Z,26.49
2022-08-22T18:18:37.108Z,26.43
2022-08-22T18:20:48.159Z,26.36
2022-08-22T18:22:54.464Z,26.28
2022-08-22T18:25:02.620Z,26.23
2022-08-22T18:27:10.359Z,26.13
2022-08-22T18:29:47.046Z,26.07
2022-08-22T18:31:52.617Z,26.01
2022-08-22T18:34:00.706Z,25.94
2022-08-22T18:36:10.756Z,25.87
2022-08-22T18:38:22.259Z,25.81
2022-08-22T18:40:33.531Z,25.75
2022-08-22T18:42:41.436Z,25.70
2022-08-22T18:44:46.217Z,25.63
2022-08-22T18:46:52.006Z,25.58
2022-08-22T18:49:14.758Z,25.55
2022-08-22T18:51:24.776Z,25.47
2022-08-22T18:53:38.038Z,25.40
2022-08-22T18:55:47.775Z,25.35
2022-08-22T18:58:11.121Z,25.26
2022-08-22T19:00:17.798Z,25.18
2022-08-22T19:02:55.945Z,25.07
2022-08-22T19:05:33.366Z,25.00
2022-08-22T19:08:05.171Z,24.90
2022-08-22T19:10:23.313Z,24.83
2022-08-22T19:12:37.184Z,24.78
2022-08-22T19:15:12.377Z,24.69
2022-08-22T19:17:33.981Z,24.63
2022-08-22T19:20:01.922Z,24.53
2022-08-22T19:22:27.835Z,24.46
2022-08-22T19:25:09.061Z,24.40
2022-08-22T19:27:31.167Z,24.33
2022-08-22T19:29:59.944Z,24.29
2022-08-22T19:32:05.914Z,24.21
2022-08-22T19:34:36.651Z,24.16
2022-08-22T19:36:39.788Z,24.13
2022-08-22T19:38:56.705Z,24.11
2022-08-22T19:40:59.852Z,24.05
2022-08-22T19:43:30.162Z,24.03
2022-08-22T19:45:40.856Z,23.99
2022-08-22T19:47:44.861Z,23.98
2022-08-22T19:49:58.706Z,23.95
2022-08-22T19:52:10.304Z,23.93
2022-08-22T19:54:18.096Z,23.92
2022-08-22T19:56:33.713Z,23.87
2022-08-22T19:58:57.585Z,23.84
2022-08-22T20:01:06.481Z,23.81
2022-08-22T20:03:15.409Z,23.80
2022-08-22T20:05:37.752Z,23.77
2022-08-22T20:07:51.122Z,23.75
2022-08-22T20:10:02.400Z,23.73
2022-08-22T20:12:15.489Z,23.71
2022-08-22T20:14:26.556Z,23.67
2022-08-22T20:17:02.687Z,23.67
2022-08-22T20:19:19.144Z,23.68
2022-08-22T20:21:44.462Z,23.69
2022-08-22T20:23:47.871Z,23.69
2022-08-22T20:25:52.960Z,23.69
2022-08-22T20:28:02.861Z,23.69
2022-08-22T20:30:10.814Z,23.66
2022-08-22T20:32:16.545Z,23.60
2022-08-22T20:34:23.440Z,23.55
2022-08-22T20:36:28.557Z,23.52
2022-08-22T20:38:38.079Z,23.52
2022-08-22T20:40:56.346Z,23.51
2022-08-22T20:43:04.316Z,23.50
2022-08-22T20:45:18.168Z,23.47
2022-08-22T20:47:26.287Z,23.44
2022-08-22T20:49:42.445Z,23.42
2022-08-22T20:51:52.683Z,23.40
2022-08-22T20:53:58.607Z,23.32
2022-08-22T20:56:01.614Z,23.21
2022-08-22T20:58:07.026Z,23.08
2022-08-22T21:00:12.976Z,22.99
2022-08-22T21:02:20.440Z,22.82
2022-08-22T21:04:26.729Z,22.71
2022-08-22T21:06:36.100Z,22.59
2022-08-22T21:08:39.414Z,22.53
2022-08-22T21:11:01.142Z,22.43
2022-08-22T21:13:08.474Z,22.31
2022-08-22T21:15:11.587Z,22.21
2022-08-22T21:17:22.157Z,22.13
2022-08-22T21:19:26.979Z,22.05
2022-08-22T21:21:31.494Z,21.97
2022-08-22T21:23:35.031Z,21.90
2022-08-22T21:25:53.721Z,21.82
2022-08-22T21:27:57.139Z,21.74
2022-08-22T21:30:01.972Z,21.69
2022-08-22T21:32:24.523Z,21.54
2022-08-22T21:34:29.835Z,21.49
2022-08-22T21:36:33.065Z,21.45
2022-08-22T21:38:36.095Z,21.38
2022-08-22T21:40:39.820Z,21.31
2022-08-22T21:42:46.209Z,21.27
2022-08-22T21:44:56.861Z,21.20
2022-08-22T21:47:19.124Z,21.12
2022-08-22T21:49:34.095Z,21.06
2022-08-22T21:51:42.675Z,21.00
2022-08-22T21:53:45.712Z,20.94
2022-08-22T21:55:48.799Z,20.89
2022-08-22T21:58:12.055Z,20.82
2022-08-22T22:00:41.181Z,20.77
2022-08-22T22:02:59.959Z,20.70
2022-08-22T22:05:09.989Z,20.65
2022-08-22T22:07:14.490Z,20.63
2022-08-22T22:09:19.139Z,20.61
2022-08-22T22:11:22.207Z,20.56
2022-08-22T22:13:27.158Z,20.51
2022-08-22T22:15:33.153Z,20.45
2022-08-22T22:17:36.255Z,20.40
2022-08-22T22:19:39.812Z,20.35
2022-08-22T22:21:42.799Z,20.34
2022-08-22T22:23:46.029Z,20.30
2022-08-22T22:25:49.567Z,20.28
2022-08-22T22:27:52.856Z,20.24
2022-08-22T22:29:58.860Z,20.22
2022-08-22T22:32:01.882Z,20.18
2022-08-22T22:34:05.160Z,20.13
2022-08-22T22:36:11.277Z,20.10
2022-08-22T22:38:14.709Z,20.03
2022-08-22T22:40:17.798Z,19.99
2022-08-22T22:42:20.892Z,19.94
2022-08-22T22:44:25.259Z,19.92
2022-08-22T22:46:29.760Z,19.90
2022-08-22T22:48:32.920Z,19.87
2022-08-22T22:50:40.395Z,19.85
2022-08-22T22:52:43.412Z,19.76
2022-08-22T22:54:46.564Z,19.71
2022-08-22T22:56:53.451Z,19.65
2022-08-22T22:58:58.981Z,19.64
2022-08-22T23:01:08.283Z,19.62
2022-08-22T23:03:12.754Z,19.57
2022-08-22T23:05:15.895Z,19.53
2022-08-22T23:07:19.373Z,19.48
2022-08-22T23:09:23.858Z,19.40
2022-08-22T23:11:41.824Z,19.37
2022-08-22T23:13:44.808Z,19.32
2022-08-22T23:15:47.801Z,19.28
2022-08-22T23:17:50.811Z,19.21
2022-08-22T23:19:55.208Z,19.19
2022-08-22T23:21:59.532Z,19.16
2022-08-22T23:24:04.402Z,19.15
2022-08-22T23:26:07.859Z,19.09
2022-08-22T23:28:11.007Z,19.06
2022-08-22T23:30:14.472Z,19.05
2022-08-22T23:32:17.783Z,19.04
2022-08-22T23:34:22.951Z,19.01
2022-08-22T23:36:27.319Z,18.99
2022-08-22T23:38:30.333Z,18.93
2022-08-22T23:40:33.608Z,18.89
2022-08-22T23:42:36.685Z,18.88
2022-08-22T23:44:41.152Z,18.88
2022-08-22T23:46:44.568Z,18.86
2022-08-22T23:48:47.724Z,18.85
2022-08-22T23:50:50.707Z,18.85
2022-08-22T23:52:55.155Z,18.82
2022-08-22T23:54:58.115Z,18.78
2022-08-22T23:57:02.814Z,18.73
2022-08-22T23:59:16.691Z,18.69
